Time;durP1;ratioP1;P1;durP2;ratioP2;P2;SDS_P1;SDS_P2;PMS_P1;PMS_P2;Temp;Humidity;BMP_temperature;BMP_pressure;BME280_temperature;BME280_humidity;BME280_pressure;Samples;Min_cycle;Max_cycle;Signal;HPM_P1;HPM_P2
2022/11/22 00:01:32;;;;;;;5.43;2.27;;;;;;;;;;4991585;28;20247;-80
2022/11/22 00:03:59;;;;;;;2.50;2.30;;;;;;;;;;4992025;28;20236;-79
2022/11/22 00:06:26;;;;;;;5.73;2.77;;;;;;;;;;4991645;28;20259;-79
2022/11/22 00:08:53;;;;;;;5.63;2.97;;;;;;;;;;4992438;28;20589;-79
2022/11/22 00:11:20;;;;;;;5.90;2.83;;;;;;;;;;4992453;28;20840;-78
2022/11/22 00:13:47;;;;;;;10.43;2.90;;;;;;;;;;4993896;28;20226;-80
2022/11/22 00:16:16;;;;;;;7.50;3.20;;;;;;;;;;4993882;28;20239;-80
2022/11/22 00:18:43;;;;;;;4.50;3.07;;;;;;;;;;4996859;28;20203;-80
2022/11/22 00:21:10;;;;;;;4.33;2.33;;;;;;;;;;4996799;28;20235;-79
2022/11/22 00:23:37;;;;;;;2.60;2.40;;;;;;;;;;5007731;28;20224;-78
2022/11/22 00:26:05;;;;;;;2.73;2.47;;;;;;;;;;4999427;28;20246;-79
2022/11/22 00:28:32;;;;;;;3.20;2.50;;;;;;;;;;4992211;28;20217;-79
2022/11/22 00:30:59;;;;;;;2.67;2.40;;;;;;;;;;4991424;28;20249;-78
2022/11/22 00:33:28;;;;;;;3.70;2.70;;;;;;;;;;4992594;28;20196;-79
2022/11/22 00:35:55;;;;;;;2.03;1.93;;;;;;;;;;4991486;28;20725;-79
2022/11/22 00:38:22;;;;;;;2.50;2.27;;;;;;;;;;4992247;28;20196;-79
2022/11/22 00:40:49;;;;;;;3.37;2.10;;;;;;;;;;4992370;28;20250;-80
2022/11/22 00:43:16;;;;;;;3.77;2.57;;;;;;;;;;4991975;28;20223;-79
2022/11/22 00:45:43;;;;;;;3.20;1.97;;;;;;;;;;4992402;28;20236;-83
2022/11/22 00:48:10;;;;;;;4.23;2.77;;;;;;;;;;4992460;28;20215;-83
2022/11/22 00:50:39;;;;;;;2.80;2.50;;;;;;;;;;4991956;28;20244;-83
2022/11/22 00:53:06;;;;;;;2.80;2.57;;;;;;;;;;4978501;28;20202;-84
2022/11/22 00:55:33;;;;;;;5.57;2.50;;;;;;;;;;4992210;28;20247;-83
2022/11/22 00:58:00;;;;;;;2.40;2.20;;;;;;;;;;4992432;28;20203;-83
2022/11/22 01:00:27;;;;;;;5.90;2.43;;;;;;;;;;4992111;28;20227;-83
2022/11/22 01:02:54;;;;;;;2.50;2.30;;;;;;;;;;4992410;28;20205;-84
2022/11/22 01:05:21;;;;;;;4.77;2.40;;;;;;;;;;4991848;28;20216;-84
2022/11/22 01:07:50;;;;;;;2.20;2.10;;;;;;;;;;4992121;28;20215;-84
2022/11/22 01:10:17;;;;;;;2.10;1.90;;;;;;;;;;4992436;28;20228;-83
2022/11/22 01:12:44;;;;;;;2.90;2.10;;;;;;;;;;4992708;28;20208;-84
2022/11/22 01:15:11;;;;;;;8.90;3.03;;;;;;;;;;4992062;28;20219;-83
2022/11/22 01:17:41;;;;;;;2.53;2.33;;;;;;;;;;4992157;28;20210;-83
2022/11/22 01:20:09;;;;;;;6.43;2.67;;;;;;;;;;4992430;28;20730;-84
2022/11/22 01:22:36;;;;;;;2.93;1.97;;;;;;;;;;4992172;28;20703;-83
2022/11/22 01:25:05;;;;;;;4.33;2.47;;;;;;;;;;4992330;28;20227;-84
2022/11/22 01:27:32;;;;;;;3.10;2.27;;;;;;;;;;4991580;28;20239;-83
2022/11/22 01:29:59;;;;;;;4.00;2.53;;;;;;;;;;4993191;28;20247;-83
2022/11/22 01:32:26;;;;;;;3.77;2.57;;;;;;;;;;4994759;28;20234;-84
2022/11/22 01:34:53;;;;;;;3.80;2.73;;;;;;;;;;4996836;28;20211;-83
2022/11/22 01:37:20;;;;;;;5.07;2.23;;;;;;;;;;4997592;28;20232;-84
2022/11/22 01:39:47;;;;;;;2.40;2.20;;;;;;;;;;4995618;28;20208;-84
2022/11/22 01:42:16;;;;;;;3.30;2.90;;;;;;;;;;4994930;28;20334;-84
2022/11/22 01:44:43;;;;;;;5.37;3.00;;;;;;;;;;4995016;28;20666;-83
2022/11/22 01:47:12;;;;;;;4.17;2.87;;;;;;;;;;4994560;28;20232;-84
2022/11/22 01:49:42;;;;;;;3.00;2.47;;;;;;;;;;4994994;28;20208;-83
2022/11/22 01:52:12;;;;;;;6.17;3.60;;;;;;;;;;4994681;28;20703;-84
2022/11/22 01:54:41;;;;;;;4.03;2.60;;;;;;;;;;4976346;28;20200;-84
2022/11/22 01:57:10;;;;;;;6.43;2.93;;;;;;;;;;4985282;28;20772;-83
2022/11/22 01:59:41;;;;;;;4.30;2.67;;;;;;;;;;4994800;28;20669;-84
2022/11/22 02:02:08;;;;;;;4.07;2.60;;;;;;;;;;5000981;28;20232;-83
2022/11/22 02:04:36;;;;;;;3.23;2.67;;;;;;;;;;4994472;28;20228;-83
2022/11/22 02:07:06;;;;;;;6.30;2.87;;;;;;;;;;4993950;28;20244;-83
2022/11/22 02:09:33;;;;;;;4.00;2.90;;;;;;;;;;4994719;28;20221;-83
2022/11/22 02:12:01;;;;;;;2.70;2.50;;;;;;;;;;4994240;28;20606;-83
2022/11/22 02:14:29;;;;;;;3.60;2.43;;;;;;;;;;4994752;28;20197;-84
2022/11/22 02:16:57;;;;;;;5.50;2.40;;;;;;;;;;4994145;28;20243;-83
2022/11/22 02:19:31;;;;;;;2.37;2.27;;;;;;;;;;4994516;28;20895;-84
2022/11/22 02:22:00;;;;;;;4.13;2.70;;;;;;;;;;4993950;28;20716;-83
2022/11/22 02:24:32;;;;;;;3.90;2.50;;;;;;;;;;4994647;28;20573;-84
2022/11/22 02:27:00;;;;;;;3.40;2.80;;;;;;;;;;4993840;28;21828;-83
2022/11/22 02:29:27;;;;;;;3.03;2.60;;;;;;;;;;4994839;28;20204;-83
2022/11/22 02:31:54;;;;;;;2.80;2.50;;;;;;;;;;4993731;28;20236;-84
2022/11/22 02:34:21;;;;;;;3.03;2.60;;;;;;;;;;4994514;28;20204;-83
2022/11/22 02:36:49;;;;;;;3.40;2.50;;;;;;;;;;4994040;28;20239;-83
2022/11/22 02:39:18;;;;;;;3.67;2.57;;;;;;;;;;4994258;28;20208;-84
2022/11/22 02:41:45;;;;;;;3.17;2.93;;;;;;;;;;4992629;28;20715;-84
2022/11/22 02:44:14;;;;;;;3.30;2.17;;;;;;;;;;4994065;28;20235;-85
2022/11/22 02:46:47;;;;;;;2.67;2.47;;;;;;;;;;4993817;28;20236;-84
2022/11/22 02:49:16;;;;;;;3.33;2.60;;;;;;;;;;4993805;28;20211;-83
2022/11/22 02:51:43;;;;;;;2.83;2.57;;;;;;;;;;4993824;28;20339;-83
2022/11/22 02:54:10;;;;;;;2.33;2.23;;;;;;;;;;4994301;28;20215;-84
2022/11/22 02:56:37;;;;;;;3.20;2.60;;;;;;;;;;4993778;28;20832;-83
2022/11/22 02:59:04;;;;;;;2.60;2.40;;;;;;;;;;4993616;28;20211;-83
2022/11/22 03:01:33;;;;;;;2.33;2.13;;;;;;;;;;4993291;28;20623;-83
2022/11/22 03:04:00;;;;;;;3.27;2.67;;;;;;;;;;4993998;28;20238;-84
2022/11/22 03:06:27;;;;;;;2.93;2.47;;;;;;;;;;4993622;28;20231;-84
2022/11/22 03:08:54;;;;;;;3.00;2.70;;;;;;;;;;4993739;28;20215;-84
2022/11/22 03:11:21;;;;;;;2.77;2.57;;;;;;;;;;4993504;28;20250;-84
2022/11/22 03:13:48;;;;;;;3.63;2.70;;;;;;;;;;4993777;28;20208;-84
2022/11/22 03:16:15;;;;;;;2.53;2.33;;;;;;;;;;4993186;28;20236;-83
2022/11/22 03:18:43;;;;;;;2.93;2.63;;;;;;;;;;4993736;28;20219;-83
2022/11/22 03:21:11;;;;;;;3.33;2.50;;;;;;;;;;4993699;28;20232;-84
2022/11/22 03:23:38;;;;;;;5.57;3.00;;;;;;;;;;4993949;28;20215;-83
2022/11/22 03:26:07;;;;;;;3.37;2.73;;;;;;;;;;4992710;28;20247;-84
2022/11/22 03:28:34;;;;;;;4.10;3.17;;;;;;;;;;4993686;28;20211;-84
2022/11/22 03:31:01;;;;;;;4.20;3.50;;;;;;;;;;4992741;28;20240;-83
2022/11/22 03:33:28;;;;;;;4.87;3.40;;;;;;;;;;4993597;28;20208;-83
2022/11/22 03:35:57;;;;;;;3.77;3.40;;;;;;;;;;4992799;28;20232;-84
2022/11/22 03:38:24;;;;;;;3.20;3.00;;;;;;;;;;4992724;28;20553;-84
2022/11/22 03:40:51;;;;;;;4.63;2.93;;;;;;;;;;4992528;28;20247;-83
2022/11/22 03:43:19;;;;;;;3.83;2.73;;;;;;;;;;4993133;28;20227;-83
2022/11/22 03:45:46;;;;;;;5.00;2.80;;;;;;;;;;4992534;28;20247;-83
2022/11/22 03:48:13;;;;;;;5.67;3.23;;;;;;;;;;4992984;28;20211;-83
2022/11/22 03:50:41;;;;;;;3.57;3.10;;;;;;;;;;4992162;28;20243;-83
2022/11/22 03:53:09;;;;;;;3.33;3.00;;;;;;;;;;4992384;28;20212;-84
2022/11/22 03:55:37;;;;;;;5.00;3.20;;;;;;;;;;4992338;28;20601;-83
2022/11/22 03:58:04;;;;;;;3.70;3.03;;;;;;;;;;4992533;28;20204;-83
2022/11/22 04:00:31;;;;;;;4.17;3.27;;;;;;;;;;4992276;28;20620;-83
2022/11/22 04:02:58;;;;;;;4.50;3.30;;;;;;;;;;4992667;28;20204;-83
2022/11/22 04:05:26;;;;;;;8.43;4.23;;;;;;;;;;4992247;28;20227;-83
2022/11/22 04:07:55;;;;;;;5.97;3.50;;;;;;;;;;4976323;28;20203;-83
2022/11/22 04:10:23;;;;;;;5.30;3.37;;;;;;;;;;4992153;28;20671;-83
2022/11/22 04:12:50;;;;;;;3.90;3.40;;;;;;;;;;4992693;28;20203;-83
2022/11/22 04:15:17;;;;;;;4.60;3.13;;;;;;;;;;4992000;28;20222;-83
2022/11/22 04:17:46;;;;;;;6.37;3.40;;;;;;;;;;4992733;28;20203;-83
2022/11/22 04:23:00;;;;;;;5.60;3.30;;;;;;;;;;4992033;28;20203;-83
2022/11/22 04:25:28;;;;;;;3.27;2.97;;;;;;;;;;4980478;28;20236;-83
2022/11/22 04:27:55;;;;;;;7.10;3.30;;;;;;;;;;4992191;28;20207;-83
2022/11/22 04:32:44;;;;;;;7.83;3.03;;;;;;;;;;4991994;28;20228;-83
2022/11/22 04:33:09;;;;;;;6.13;2.90;;;;;;;;;;4992117;28;20240;-83
2022/11/22 04:35:36;;;;;;;3.73;3.07;;;;;;;;;;4982279;28;20240;-83
2022/11/22 04:38:03;;;;;;;4.33;3.17;;;;;;;;;;4972536;28;20204;-83
2022/11/22 04:40:32;;;;;;;5.23;3.30;;;;;;;;;;4972666;28;20251;-84
2022/11/22 04:45:45;;;;;;;7.80;3.40;;;;;;;;;;4971416;28;20247;-83
2022/11/22 04:48:12;;;;;;;9.30;4.23;;;;;;;;;;4972716;28;20217;-84
2022/11/22 04:53:25;;;;;;;5.97;3.37;;;;;;;;;;4972868;28;20204;-84
2022/11/22 04:55:53;;;;;;;8.10;3.90;;;;;;;;;;4972254;28;20428;-83
2022/11/22 04:58:20;;;;;;;7.87;4.07;;;;;;;;;;4972369;28;20208;-84
2022/11/22 05:00:47;;;;;;;9.57;3.93;;;;;;;;;;4972573;28;20243;-84
2022/11/22 05:03:16;;;;;;;11.90;3.63;;;;;;;;;;4972876;28;20216;-84
2022/11/22 05:05:44;;;;;;;10.77;3.70;;;;;;;;;;4974785;28;20244;-84
2022/11/22 05:08:11;;;;;;;9.63;3.97;;;;;;;;;;4976079;28;20205;-83
2022/11/22 05:10:57;;;;;;;12.93;4.37;;;;;;;;;;4975978;28;20240;-83
2022/11/22 05:13:26;;;;;;;4.80;3.40;;;;;;;;;;4990029;28;20212;-81
2022/11/22 05:15:54;;;;;;;10.37;4.20;;;;;;;;;;4996643;28;20725;-80
2022/11/22 05:18:22;;;;;;;7.77;3.97;;;;;;;;;;4996918;28;20212;-82
2022/11/22 05:20:49;;;;;;;4.87;3.30;;;;;;;;;;4995945;28;20240;-82
2022/11/22 05:26:01;;;;;;;11.43;4.10;;;;;;;;;;4994880;28;20242;-83
2022/11/22 05:28:30;;;;;;;8.43;3.87;;;;;;;;;;4995231;28;20208;-83
2022/11/22 05:30:57;;;;;;;8.60;4.57;;;;;;;;;;4994869;28;20240;-82
2022/11/22 05:33:24;;;;;;;10.37;4.40;;;;;;;;;;4995766;28;20216;-83
2022/11/22 05:35:51;;;;;;;11.57;4.27;;;;;;;;;;4995043;28;20236;-83
2022/11/22 05:38:18;;;;;;;9.27;4.10;;;;;;;;;;4994932;28;20669;-83
2022/11/22 05:40:45;;;;;;;8.83;3.73;;;;;;;;;;4994479;28;20697;-82
2022/11/22 05:43:13;;;;;;;9.57;4.87;;;;;;;;;;4995077;28;20699;-83
2022/11/22 05:45:41;;;;;;;9.00;4.37;;;;;;;;;;4994626;28;20251;-82
2022/11/22 05:48:08;;;;;;;9.60;3.97;;;;;;;;;;4994773;28;20211;-82
2022/11/22 05:50:35;;;;;;;10.97;4.10;;;;;;;;;;4994505;28;20247;-82
2022/11/22 05:53:03;;;;;;;15.07;5.00;;;;;;;;;;4994885;28;20208;-83
2022/11/22 05:55:31;;;;;;;18.00;5.27;;;;;;;;;;4994679;28;20250;-82
2022/11/22 05:58:00;;;;;;;13.57;4.13;;;;;;;;;;5005426;28;20739;-83
2022/11/22 06:00:27;;;;;;;11.80;4.50;;;;;;;;;;5014071;28;20308;-82
2022/11/22 06:02:59;;;;;;;9.73;3.67;;;;;;;;;;5014504;28;20207;-83
2022/11/22 06:05:26;;;;;;;9.43;4.03;;;;;;;;;;5014092;28;20243;-82
2022/11/22 06:07:54;;;;;;;9.63;4.20;;;;;;;;;;5013908;28;20214;-81
2022/11/22 06:10:21;;;;;;;10.70;3.77;;;;;;;;;;5008035;28;20753;-81
2022/11/22 06:12:48;;;;;;;12.30;3.90;;;;;;;;;;4994354;28;20676;-81
2022/11/22 06:15:15;;;;;;;10.00;4.17;;;;;;;;;;4993176;28;20259;-80
2022/11/22 06:17:43;;;;;;;8.77;4.07;;;;;;;;;;4977098;28;20226;-81
2022/11/22 06:20:11;;;;;;;8.50;4.00;;;;;;;;;;4993633;28;20231;-81
2022/11/22 06:22:39;;;;;;;9.80;4.30;;;;;;;;;;4994496;28;20211;-81
2022/11/22 06:25:06;;;;;;;10.17;3.97;;;;;;;;;;4991683;28;20234;-81
2022/11/22 06:27:33;;;;;;;12.97;4.90;;;;;;;;;;4993692;28;20231;-81
2022/11/22 06:30:00;;;;;;;7.57;5.00;;;;;;;;;;4994132;28;20235;-81
2022/11/22 06:32:28;;;;;;;10.07;4.20;;;;;;;;;;4993438;28;20244;-81
2022/11/22 06:34:55;;;;;;;9.03;4.00;;;;;;;;;;4993999;28;20688;-81
2022/11/22 06:37:23;;;;;;;13.17;4.30;;;;;;;;;;4988308;28;20232;-81
2022/11/22 06:39:50;;;;;;;10.47;4.33;;;;;;;;;;4983417;28;20205;-81
2022/11/22 06:42:18;;;;;;;15.00;4.53;;;;;;;;;;4973745;28;20240;-81
2022/11/22 06:44:45;;;;;;;12.97;4.93;;;;;;;;;;5000475;28;20278;-82
2022/11/22 06:47:12;;;;;;;11.40;4.30;;;;;;;;;;5012841;28;20238;-81
2022/11/22 06:49:39;;;;;;;9.53;3.87;;;;;;;;;;5013062;28;20222;-81
2022/11/22 06:52:06;;;;;;;11.97;4.30;;;;;;;;;;5012647;28;20238;-81
2022/11/22 06:54:34;;;;;;;8.33;3.77;;;;;;;;;;5003025;28;20215;-81
2022/11/22 06:57:02;;;;;;;18.77;5.10;;;;;;;;;;4975649;28;20236;-77
2022/11/22 06:59:29;;;;;;;13.47;4.33;;;;;;;;;;4973918;28;20303;-77
2022/11/22 07:01:56;;;;;;;9.17;3.60;;;;;;;;;;4973535;28;20255;-77
2022/11/22 07:04:23;;;;;;;10.63;3.70;;;;;;;;;;4974008;28;20221;-77
2022/11/22 07:06:50;;;;;;;11.33;3.60;;;;;;;;;;4973458;28;20247;-77
2022/11/22 07:09:17;;;;;;;12.63;3.70;;;;;;;;;;4973547;28;20689;-77
2022/11/22 07:11:45;;;;;;;17.13;4.40;;;;;;;;;;4982719;28;20240;-77
2022/11/22 07:14:12;;;;;;;9.33;4.30;;;;;;;;;;4992928;28;20223;-77
2022/11/22 07:16:40;;;;;;;9.67;3.90;;;;;;;;;;4992806;28;20236;-78
2022/11/22 07:19:07;;;;;;;10.17;3.67;;;;;;;;;;4992599;28;20673;-77
2022/11/22 07:21:35;;;;;;;6.13;3.20;;;;;;;;;;4976841;28;20262;-78
2022/11/22 07:24:04;;;;;;;6.63;3.33;;;;;;;;;;4973429;28;20352;-77
2022/11/22 07:26:31;;;;;;;8.07;3.17;;;;;;;;;;4973143;28;20256;-78
2022/11/22 07:28:59;;;;;;;7.43;3.20;;;;;;;;;;4983717;28;20309;-77
2022/11/22 07:31:27;;;;;;;9.23;3.33;;;;;;;;;;5012063;28;20700;-76
2022/11/22 07:33:57;;;;;;;7.63;2.70;;;;;;;;;;5000658;28;20216;-77
2022/11/22 07:36:24;;;;;;;7.57;3.40;;;;;;;;;;4989632;28;20258;-77
2022/11/22 07:38:51;;;;;;;7.70;3.43;;;;;;;;;;4991792;28;20214;-77
2022/11/22 07:41:19;;;;;;;8.50;3.17;;;;;;;;;;5008444;28;20344;-77
2022/11/22 07:43:46;;;;;;;9.50;3.13;;;;;;;;;;5011702;28;20207;-77
2022/11/22 07:46:19;;;;;;;10.03;3.40;;;;;;;;;;4998132;28;20251;-77
2022/11/22 07:48:46;;;;;;;10.57;3.03;;;;;;;;;;4991925;28;20696;-77
2022/11/22 07:51:13;;;;;;;8.80;2.70;;;;;;;;;;4991602;28;20772;-77
2022/11/22 07:53:40;;;;;;;6.43;2.67;;;;;;;;;;5010265;28;20207;-77
2022/11/22 07:56:07;;;;;;;10.20;3.10;;;;;;;;;;5011126;28;20239;-78
2022/11/22 07:58:36;;;;;;;11.70;2.80;;;;;;;;;;5011239;28;20588;-77
2022/11/22 08:01:05;;;;;;;8.63;2.27;;;;;;;;;;5011032;28;20714;-77
2022/11/22 08:03:34;;;;;;;7.87;2.83;;;;;;;;;;4995847;28;20270;-77
2022/11/22 08:06:01;;;;;;;7.57;2.97;;;;;;;;;;4991176;28;20254;-77
2022/11/22 08:08:28;;;;;;;7.70;2.70;;;;;;;;;;4991683;28;20208;-77
2022/11/22 08:10:55;;;;;;;9.57;3.20;;;;;;;;;;4991408;28;20852;-78
2022/11/22 08:13:22;;;;;;;9.40;3.50;;;;;;;;;;4991924;28;20208;-77
2022/11/22 08:15:50;;;;;;;4.63;2.30;;;;;;;;;;4991548;28;20235;-77
2022/11/22 08:18:17;;;;;;;8.63;3.10;;;;;;;;;;4991384;28;20732;-77
2022/11/22 08:20:45;;;;;;;8.87;3.00;;;;;;;;;;4991105;28;20246;-78
2022/11/22 08:23:12;;;;;;;4.67;2.80;;;;;;;;;;4991614;28;20211;-78
2022/11/22 08:25:39;;;;;;;2.80;2.50;;;;;;;;;;4991157;28;20663;-78
2022/11/22 08:28:06;;;;;;;4.30;2.27;;;;;;;;;;4986184;28;20207;-78
2022/11/22 08:30:33;;;;;;;4.50;2.70;;;;;;;;;;4987659;28;20251;-78
2022/11/22 08:33:00;;;;;;;4.37;2.67;;;;;;;;;;4989268;28;20688;-78
2022/11/22 08:35:27;;;;;;;4.77;2.47;;;;;;;;;;4991150;28;20715;-78
2022/11/22 08:37:59;;;;;;;6.57;2.60;;;;;;;;;;4990988;28;20215;-78
2022/11/22 08:40:26;;;;;;;5.43;3.03;;;;;;;;;;4993021;28;20659;-78
2022/11/22 08:42:55;;;;;;;5.30;2.70;;;;;;;;;;4995550;28;20227;-77
2022/11/22 08:45:22;;;;;;;4.90;2.70;;;;;;;;;;4994974;28;20234;-78
2022/11/22 08:47:51;;;;;;;8.30;3.40;;;;;;;;;;4995206;28;20574;-78
2022/11/22 08:50:18;;;;;;;8.67;3.10;;;;;;;;;;4994769;28;20239;-78
2022/11/22 08:52:45;;;;;;;14.60;3.60;;;;;;;;;;4995270;28;20229;-77
2022/11/22 08:55:14;;;;;;;6.73;3.10;;;;;;;;;;4990294;28;20204;-78
2022/11/22 08:57:41;;;;;;;10.23;3.80;;;;;;;;;;4988316;28;20212;-78
2022/11/22 09:00:08;;;;;;;5.93;3.30;;;;;;;;;;4994424;28;20231;-79
2022/11/22 09:02:35;;;;;;;7.10;3.83;;;;;;;;;;4995316;28;20212;-78
2022/11/22 09:05:03;;;;;;;9.83;3.60;;;;;;;;;;4995261;28;20211;-78
2022/11/22 09:07:30;;;;;;;7.47;3.57;;;;;;;;;;4994711;28;20611;-77
2022/11/22 09:09:57;;;;;;;7.50;3.30;;;;;;;;;;4994950;28;20227;-78
2022/11/22 09:12:25;;;;;;;8.13;3.70;;;;;;;;;;4994508;28;20232;-78
2022/11/22 09:14:52;;;;;;;8.03;3.60;;;;;;;;;;4994918;28;20227;-78
2022/11/22 09:17:20;;;;;;;12.37;3.40;;;;;;;;;;4994289;28;20278;-78
2022/11/22 09:19:47;;;;;;;10.60;3.80;;;;;;;;;;4994572;28;20258;-78
2022/11/22 09:22:14;;;;;;;18.77;4.57;;;;;;;;;;4994139;28;20240;-78
2022/11/22 09:24:42;;;;;;;6.83;3.00;;;;;;;;;;4986567;28;20213;-78
2022/11/22 09:27:09;;;;;;;5.73;2.90;;;;;;;;;;4994128;28;20228;-78
2022/11/22 09:29:37;;;;;;;8.77;3.60;;;;;;;;;;4989489;28;20560;-78
2022/11/22 09:32:04;;;;;;;6.27;2.97;;;;;;;;;;4986480;28;20552;-78
2022/11/22 09:34:31;;;;;;;9.40;3.07;;;;;;;;;;4994404;28;20636;-78
2022/11/22 09:36:58;;;;;;;8.67;2.90;;;;;;;;;;4994113;28;20236;-77
2022/11/22 09:39:25;;;;;;;9.83;3.17;;;;;;;;;;4994249;28;20215;-78
2022/11/22 09:42:04;;;;;;;7.53;3.10;;;;;;;;;;4993942;28;20251;-78
2022/11/22 09:44:35;;;;;;;6.83;3.27;;;;;;;;;;4994020;28;20215;-78
2022/11/22 09:47:08;;;;;;;10.03;3.40;;;;;;;;;;4993385;28;20246;-78
2022/11/22 09:49:38;;;;;;;10.40;3.07;;;;;;;;;;4994402;28;20204;-78
2022/11/22 09:52:08;;;;;;;11.23;3.50;;;;;;;;;;4992434;28;20240;-78
2022/11/22 09:54:39;;;;;;;8.77;3.10;;;;;;;;;;4974885;28;20217;-78
2022/11/22 09:57:10;;;;;;;6.83;2.67;;;;;;;;;;4974335;28;20300;-78
2022/11/22 09:59:40;;;;;;;2.90;2.57;;;;;;;;;;4974740;28;20212;-78
2022/11/22 10:02:13;;;;;;;7.90;2.83;;;;;;;;;;4995175;28;20228;-77
2022/11/22 10:04:41;;;;;;;6.43;3.07;;;;;;;;;;4985466;28;20213;-78
2022/11/22 10:07:12;;;;;;;8.17;3.70;;;;;;;;;;4993111;28;20246;-77
2022/11/22 10:09:41;;;;;;;6.33;3.30;;;;;;;;;;4993757;28;20208;-78
2022/11/22 10:12:11;;;;;;;5.33;2.97;;;;;;;;;;4993211;28;20238;-78
2022/11/22 10:14:43;;;;;;;9.40;2.87;;;;;;;;;;4993839;28;20698;-78
2022/11/22 10:17:19;;;;;;;4.60;2.23;;;;;;;;;;4993108;28;20287;-78
2022/11/22 10:19:51;;;;;;;8.83;3.00;;;;;;;;;;4993469;28;20220;-78
2022/11/22 10:22:18;;;;;;;5.07;2.30;;;;;;;;;;4993144;28;20244;-78
2022/11/22 10:24:45;;;;;;;7.10;2.50;;;;;;;;;;4993737;28;20208;-78
2022/11/22 10:27:13;;;;;;;5.83;3.33;;;;;;;;;;4993043;28;20239;-78
2022/11/22 10:29:42;;;;;;;7.53;2.87;;;;;;;;;;5007962;28;20227;-78
2022/11/22 10:32:14;;;;;;;8.73;3.43;;;;;;;;;;5012419;28;20258;-78
2022/11/22 10:34:52;;;;;;;6.33;3.20;;;;;;;;;;4998593;28;20216;-78
2022/11/22 10:37:23;;;;;;;6.57;2.93;;;;;;;;;;4987745;28;20715;-77
2022/11/22 10:39:56;;;;;;;9.80;3.40;;;;;;;;;;4987964;28;20665;-78
2022/11/22 10:42:31;;;;;;;22.73;6.67;;;;;;;;;;4992925;28;20232;-78
2022/11/22 10:45:02;;;;;;;7.13;3.10;;;;;;;;;;4993404;28;20196;-78
2022/11/22 10:47:38;;;;;;;5.93;3.00;;;;;;;;;;4992741;28;20247;-78
2022/11/22 10:50:13;;;;;;;5.93;2.80;;;;;;;;;;4992795;28;20243;-79
2022/11/22 10:52:46;;;;;;;5.00;2.63;;;;;;;;;;4992875;28;20227;-78
2022/11/22 10:55:21;;;;;;;5.87;2.70;;;;;;;;;;4992485;28;20208;-79
2022/11/22 10:57:51;;;;;;;6.23;3.07;;;;;;;;;;4980590;28;20227;-78
2022/11/22 11:00:20;;;;;;;9.27;5.70;;;;;;;;;;4992453;28;20240;-78
2022/11/22 11:02:57;;;;;;;14.07;7.60;;;;;;;;;;4984373;28;20657;-78
2022/11/22 11:05:27;;;;;;;25.97;11.27;;;;;;;;;;4981033;28;20214;-78
2022/11/22 11:07:54;;;;;;;9.87;2.80;;;;;;;;;;4986185;28;20573;-78
2022/11/22 11:10:22;;;;;;;12.60;6.33;;;;;;;;;;4992263;28;20715;-78
2022/11/22 11:12:52;;;;;;;38.47;17.10;;;;;;;;;;4992869;28;20204;-78
2022/11/22 11:15:21;;;;;;;10.57;4.43;;;;;;;;;;4992389;28;20215;-78
2022/11/22 11:17:51;;;;;;;5.73;3.67;;;;;;;;;;4992594;28;20200;-78
2022/11/22 11:20:21;;;;;;;9.53;4.97;;;;;;;;;;4991771;28;20243;-78
2022/11/22 11:22:50;;;;;;;9.00;2.73;;;;;;;;;;4992595;28;20208;-79
2022/11/22 11:25:33;;;;;;;7.77;3.20;;;;;;;;;;4991687;28;20223;-78
2022/11/22 11:28:03;;;;;;;5.43;2.80;;;;;;;;;;4991985;28;20232;-78
2022/11/22 11:30:37;;;;;;;22.60;11.27;;;;;;;;;;4991978;28;20231;-79
2022/11/22 11:33:10;;;;;;;7.40;3.30;;;;;;;;;;4992115;28;20208;-77
2022/11/22 11:35:37;;;;;;;3.90;2.10;;;;;;;;;;4992037;28;20758;-77
2022/11/22 11:38:26;;;;;;;7.87;2.67;;;;;;;;;;4992088;28;20248;-77
2022/11/22 11:40:53;;;;;;;6.03;2.47;;;;;;;;;;4991985;28;20637;-77
2022/11/22 11:43:20;;;;;;;9.37;2.43;;;;;;;;;;4992055;28;20216;-78
2022/11/22 11:45:48;;;;;;;6.87;2.60;;;;;;;;;;4991111;28;20254;-78
2022/11/22 11:48:28;;;;;;;9.33;2.63;;;;;;;;;;4991325;28;20227;-78
2022/11/22 11:51:06;;;;;;;7.03;2.33;;;;;;;;;;4972481;28;20715;-78
2022/11/22 11:53:34;;;;;;;3.73;1.90;;;;;;;;;;4972602;28;20216;-78
2022/11/22 11:56:17;;;;;;;8.10;1.93;;;;;;;;;;4972148;28;20236;-78
2022/11/22 11:58:44;;;;;;;5.80;2.17;;;;;;;;;;5005546;28;20203;-78
2022/11/22 12:01:11;;;;;;;5.00;2.13;;;;;;;;;;5010899;28;20239;-78
2022/11/22 12:03:39;;;;;;;5.80;2.80;;;;;;;;;;5011543;28;20207;-78
2022/11/22 12:06:13;;;;;;;2.63;2.30;;;;;;;;;;5010664;28;20242;-78
2022/11/22 12:08:41;;;;;;;6.33;2.13;;;;;;;;;;5011631;28;20210;-78
2022/11/22 12:11:10;;;;;;;2.83;1.80;;;;;;;;;;5010989;28;20246;-78
2022/11/22 12:13:40;;;;;;;5.93;2.30;;;;;;;;;;5011407;28;20211;-78
2022/11/22 12:16:12;;;;;;;6.00;2.17;;;;;;;;;;5010746;28;20235;-78
2022/11/22 12:18:42;;;;;;;5.97;2.20;;;;;;;;;;5011335;28;20211;-78
2022/11/22 12:21:16;;;;;;;3.73;2.40;;;;;;;;;;5010697;28;20927;-78
2022/11/22 12:23:48;;;;;;;5.13;2.33;;;;;;;;;;5011483;28;20223;-78
2022/11/22 12:26:15;;;;;;;4.20;2.07;;;;;;;;;;5010675;28;20235;-78
2022/11/22 12:28:43;;;;;;;7.37;2.10;;;;;;;;;;5003559;28;20616;-78
2022/11/22 12:31:14;;;;;;;12.43;2.53;;;;;;;;;;4990526;28;20880;-78
2022/11/22 12:33:42;;;;;;;5.93;2.00;;;;;;;;;;4991534;28;20211;-78
2022/11/22 12:36:13;;;;;;;6.47;2.80;;;;;;;;;;4990936;28;20232;-77
2022/11/22 12:38:41;;;;;;;6.37;2.40;;;;;;;;;;4991909;28;20219;-81
2022/11/22 12:41:12;;;;;;;4.40;2.50;;;;;;;;;;4991324;28;20240;-78
2022/11/22 12:43:42;;;;;;;5.13;2.53;;;;;;;;;;4988548;28;20212;-78
2022/11/22 12:46:11;;;;;;;5.13;1.80;;;;;;;;;;4990753;28;20232;-78
2022/11/22 12:48:40;;;;;;;4.63;2.10;;;;;;;;;;4991276;28;20727;-79
2022/11/22 12:51:09;;;;;;;3.23;1.90;;;;;;;;;;4990759;28;20247;-78
2022/11/22 12:53:38;;;;;;;5.67;2.57;;;;;;;;;;4991397;28;20216;-78
2022/11/22 12:56:10;;;;;;;5.37;1.90;;;;;;;;;;4990907;28;20231;-78
2022/11/22 12:58:41;;;;;;;2.57;2.10;;;;;;;;;;4992427;28;20208;-82
2022/11/22 13:01:10;;;;;;;3.97;2.00;;;;;;;;;;4991236;28;20247;-82
2022/11/22 13:03:39;;;;;;;1.80;1.37;;;;;;;;;;4991718;28;20223;-82
2022/11/22 13:06:07;;;;;;;4.83;2.00;;;;;;;;;;4991460;28;20246;-82
2022/11/22 13:08:37;;;;;;;4.13;2.10;;;;;;;;;;4991448;28;20569;-82
2022/11/22 13:11:06;;;;;;;6.33;2.07;;;;;;;;;;4978734;28;20248;-82
2022/11/22 13:13:36;;;;;;;3.17;1.90;;;;;;;;;;4972361;28;20297;-82
2022/11/22 13:16:08;;;;;;;5.73;2.30;;;;;;;;;;4971730;28;20247;-82
2022/11/22 13:18:38;;;;;;;5.03;2.27;;;;;;;;;;4972202;28;20193;-82
2022/11/22 13:21:09;;;;;;;7.07;2.80;;;;;;;;;;4971912;28;20247;-82
2022/11/22 13:23:45;;;;;;;10.43;3.83;;;;;;;;;;4972477;28;20480;-82
2022/11/22 13:26:17;;;;;;;4.13;2.30;;;;;;;;;;4973105;28;20244;-82
2022/11/22 13:28:44;;;;;;;7.13;2.43;;;;;;;;;;4975785;28;20216;-82
2022/11/22 13:31:17;;;;;;;2.97;2.67;;;;;;;;;;4975125;28;20263;-82
2022/11/22 13:33:53;;;;;;;4.33;2.20;;;;;;;;;;4976061;28;20211;-83
2022/11/22 13:36:37;;;;;;;6.53;2.50;;;;;;;;;;4975125;28;20237;-82
2022/11/22 13:39:06;;;;;;;3.30;2.13;;;;;;;;;;4975395;28;20225;-82
2022/11/22 13:41:37;;;;;;;2.43;2.17;;;;;;;;;;4983371;28;20240;-82
2022/11/22 13:44:17;;;;;;;2.43;2.23;;;;;;;;;;4995131;28;20222;-82
2022/11/22 13:46:52;;;;;;;4.20;2.70;;;;;;;;;;4994523;28;20254;-82
2022/11/22 13:49:39;;;;;;;4.03;2.70;;;;;;;;;;4994871;28;20192;-82
2022/11/22 13:52:08;;;;;;;3.93;2.37;;;;;;;;;;4994163;28;20239;-83
2022/11/22 13:54:43;;;;;;;3.73;2.33;;;;;;;;;;4993825;28;20580;-82
2022/11/22 13:57:27;;;;;;;2.57;2.00;;;;;;;;;;4994029;28;20232;-82
2022/11/22 14:00:13;;;;;;;5.17;2.20;;;;;;;;;;4994551;28;20247;-82
2022/11/22 14:02:43;;;;;;;6.73;2.50;;;;;;;;;;4994256;28;20238;-83
2022/11/22 14:05:18;;;;;;;3.07;2.50;;;;;;;;;;4994122;28;20184;-81
2022/11/22 14:07:45;;;;;;;7.10;2.83;;;;;;;;;;4994629;28;20229;-82
2022/11/22 14:10:32;;;;;;;3.63;2.43;;;;;;;;;;4993935;28;20232;-82
2022/11/22 14:13:04;;;;;;;4.07;2.13;;;;;;;;;;4994555;28;20199;-82
2022/11/22 14:15:55;;;;;;;2.60;1.80;;;;;;;;;;4993775;28;20719;-82
2022/11/22 14:18:36;;;;;;;2.77;2.00;;;;;;;;;;4984557;28;20222;-82
2022/11/22 14:21:05;;;;;;;5.90;2.37;;;;;;;;;;4993751;28;20236;-82
2022/11/22 14:23:38;;;;;;;5.87;2.40;;;;;;;;;;4982047;28;20201;-82
2022/11/22 14:26:14;;;;;;;5.17;2.33;;;;;;;;;;4974223;28;20247;-82
2022/11/22 14:29:01;;;;;;;2.20;2.00;;;;;;;;;;4974394;28;20685;-82
2022/11/22 14:31:30;;;;;;;6.63;1.97;;;;;;;;;;4974145;28;20236;-81
2022/11/22 14:34:21;;;;;;;5.17;2.33;;;;;;;;;;4974764;28;20629;-82
2022/11/22 14:37:03;;;;;;;3.17;2.17;;;;;;;;;;4974144;28;20755;-81
2022/11/22 14:39:52;;;;;;;3.27;2.10;;;;;;;;;;4973982;28;20221;-82
2022/11/22 14:42:38;;;;;;;5.27;2.40;;;;;;;;;;4973770;28;20236;-82
2022/11/22 14:45:15;;;;;;;6.87;2.30;;;;;;;;;;4974021;28;20212;-82
2022/11/22 14:47:44;;;;;;;2.33;1.77;;;;;;;;;;4973905;28;20235;-82
2022/11/22 14:50:16;;;;;;;7.07;2.60;;;;;;;;;;4978419;28;20252;-81
2022/11/22 14:52:44;;;;;;;2.37;2.00;;;;;;;;;;4993641;28;20653;-82
2022/11/22 14:55:15;;;;;;;6.80;2.70;;;;;;;;;;4992856;28;20215;-82
2022/11/22 14:57:43;;;;;;;5.23;2.87;;;;;;;;;;4993714;28;20188;-82
2022/11/22 15:00:16;;;;;;;4.70;2.87;;;;;;;;;;4992905;28;20235;-81
2022/11/22 15:03:07;;;;;;;6.83;3.03;;;;;;;;;;4993433;28;20574;-82
2022/11/22 15:05:47;;;;;;;5.23;2.60;;;;;;;;;;4955631;28;20240;-81